Date,TemperatureHighF,TemperatureAvgF,TemperatureLowF,DewpointHighF,DewpointAvgF,DewpointLowF,HumidityHigh,HumidityAvg,HumidityLow,PressureMaxIn,PressureMinIn,WindSpeedMaxMPH,WindSpeedAvgMPH,GustSpeedMaxMPH,PrecipitationSumIn
2013-3-1,81.1,64.1,43.8,33.3,24.1,20.3,49,25,11,30.33,30.13,19,3,19,0.00
2013-3-2,83.8,62.8,48.5,41.7,29.5,22.9,47,31,12,30.23,30.04,7,0,7,0.00
2013-3-3,73.4,57.9,45.6,47.6,34.6,26.3,92,46,19,30.09,29.94,9,1,9,0.00
2013-3-4,69.6,55.7,48.2,50.7,47.5,45.2,95,76,46,30.09,29.99,6,0,6,0.00
2013-3-5,65.8,52.6,42.2,53.7,48.0,41.1,98,85,62,30.11,29.98,10,1,11,0.00
2013-3-6,64.1,52.2,46.3,47.1,45.0,42.9,96,78,50,30.13,29.99,7,1,7,0.03
2013-3-7,54.5,48.9,43.9,50.8,45.7,40.4,96,89,76,30.02,29.87,6,0,7,0.08
2013-3-8,49.9,45.3,43.6,44.6,42.3,39.8,96,89,72,30.06,29.78,7,1,8,0.95
2013-3-9,58.2,48.4,41.0,47.5,43.8,39.1,96,85,63,30.22,30.05,8,1,8,0.01
2013-3-10,74.3,53.5,37.4,47.4,40.1,27.4,96,67,18,30.29,30.12,7,0,7,0.00
2013-3-11,77.8,56.7,38.8,45.7,37.8,30.1,82,54,20,30.20,30.01,6,0,6,0.00
2013-3-12,82.7,61.5,44.3,49.1,40.3,35.1,77,50,21,30.08,29.97,5,0,6,0.00
2013-3-13,87.7,66.2,48.4,55.0,42.8,37.2,70,46,20,30.10,29.97,7,0,7,0.00
2013-3-14,91.0,67.9,49.9,52.7,44.6,38.7,68,46,19,30.07,29.94,6,0,6,0.00
2013-3-15,83.8,64.5,50.7,51.8,43.4,31.6,72,49,25,30.00,29.87,7,0,7,0.00
2013-3-16,75.0,58.3,46.0,54.3,42.3,32.3,93,58,30,29.93,29.82,7,0,7,0.00
2013-3-17,72.2,55.2,46.4,53.9,49.0,45.1,98,82,46,29.98,29.89,7,0,7,0.00
2013-3-18,68.0,54.9,47.4,53.0,49.6,46.3,97,84,56,30.08,29.96,7,0,7,0.01
2013-3-19,73.3,56.6,47.8,54.7,50.0,46.6,97,81,51,30.09,30.00,7,0,7,0.00
2013-3-20,74.2,58.8,46.9,52.4,48.8,44.9,95,72,41,30.08,29.95,10,0,10,0.00
2013-3-21,71.0,56.9,45.8,53.6,48.5,44.1,95,76,48,29.96,29.77,10,1,11,0.00
2013-3-22,75.5,56.6,46.6,54.1,48.7,44.5,96,78,36,29.91,29.76,9,1,9,0.00
2013-3-23,74.8,56.4,42.4,52.8,46.4,37.3,96,74,29,30.00,29.89,7,0,7,0.00
2013-3-24,78.5,58.9,42.6,50.5,41.9,32.1,91,59,19,30.01,29.85,8,0,8,0.00
2013-3-25,82.3,61.2,44.8,48.5,41.9,37.9,79,53,23,29.96,29.84,7,0,7,0.00
2013-3-26,74.3,57.6,43.8,48.5,43.0,37.3,91,62,27,29.95,29.85,10,1,10,0.00
2013-3-27,71.7,54.8,44.0,51.5,46.8,42.9,97,77,45,30.04,29.91,8,1,8,0.00
2013-3-28,79.5,58.9,43.2,52.2,46.1,40.1,95,67,26,30.06,29.96,8,0,9,0.00
2013-3-29,78.3,60.0,45.5,56.0,49.9,43.6,94,73,40,30.10,29.98,7,1,8,0.00
2013-3-30,78.3,60.4,48.9,55.8,50.9,45.3,97,74,37,30.11,29.98,8,1,8,0.00
2013-3-31,72.0,56.2,44.2,53.5,48.1,41.1,93,76,49,30.11,30.01,8,1,10,0.00